createdAt,value
2022-10-23T00:00:20.793Z,158
2022-10-23T00:01:20.750Z,158
2022-10-23T00:02:20.756Z,158
2022-10-23T00:03:20.755Z,158
2022-10-23T00:04:20.746Z,158
2022-10-23T00:05:20.744Z,158
2022-10-23T00:06:20.734Z,158
2022-10-23T00:07:20.738Z,158
2022-10-23T00:08:20.736Z,158
2022-10-23T00:09:20.734Z,158
2022-10-23T00:10:20.754Z,158
2022-10-23T00:11:20.730Z,158
2022-10-23T00:12:20.744Z,158
2022-10-23T00:13:20.737Z,158
2022-10-23T00:14:20.731Z,158
2022-10-23T00:15:20.757Z,158
2022-10-23T00:16:20.729Z,158
2022-10-23T00:17:20.742Z,158
2022-10-23T00:18:20.729Z,158
2022-10-23T00:19:20.760Z,158
2022-10-23T00:20:20.742Z,158
2022-10-23T00:21:20.737Z,158
2022-10-23T00:22:20.744Z,158
2022-10-23T00:23:20.735Z,158
2022-10-23T00:24:20.734Z,158
2022-10-23T00:25:20.746Z,158
2022-10-23T00:26:20.756Z,158
2022-10-23T00:27:20.730Z,158
2022-10-23T00:28:20.742Z,158
2022-10-23T00:29:20.736Z,158
2022-10-23T00:30:20.754Z,158
2022-10-23T00:31:20.739Z,158
2022-10-23T00:32:20.775Z,158
2022-10-23T00:33:20.752Z,158
2022-10-23T00:34:20.759Z,158
2022-10-23T00:35:20.775Z,158
2022-10-23T00:36:20.761Z,158
2022-10-23T00:37:20.739Z,158
2022-10-23T00:38:20.734Z,158
2022-10-23T00:39:20.743Z,158
2022-10-23T00:40:20.756Z,158
2022-10-23T00:41:20.771Z,158
2022-10-23T00:42:20.735Z,158
2022-10-23T00:43:21.019Z,158
2022-10-23T00:44:20.739Z,158
2022-10-23T00:45:20.763Z,158
2022-10-23T00:46:20.749Z,158
2022-10-23T00:47:20.747Z,158
2022-10-23T00:48:20.743Z,158
2022-10-23T00:49:20.739Z,158
2022-10-23T00:50:20.769Z,158
2022-10-23T00:51:20.772Z,158
2022-10-23T00:52:20.737Z,158
2022-10-23T00:53:20.762Z,158
2022-10-23T00:54:24.950Z,158
2022-10-23T00:55:20.749Z,158
2022-10-23T00:56:20.742Z,158
2022-10-23T00:57:20.778Z,158
2022-10-23T00:58:20.732Z,158
2022-10-23T00:59:20.745Z,158
2022-10-23T01:00:20.764Z,158
2022-10-23T01:01:20.887Z,158
2022-10-23T01:02:20.837Z,158
2022-10-23T01:03:20.742Z,158
2022-10-23T01:04:20.742Z,158
2022-10-23T01:05:20.772Z,158
2022-10-23T01:06:20.735Z,158
2022-10-23T01:07:20.770Z,158
2022-10-23T01:08:20.749Z,158
2022-10-23T01:09:20.740Z,158
2022-10-23T01:10:20.757Z,158
2022-10-23T01:11:20.739Z,158
2022-10-23T01:12:20.755Z,158
2022-10-23T01:13:20.745Z,158
2022-10-23T01:14:20.981Z,158
2022-10-23T01:15:20.762Z,158
2022-10-23T01:16:20.745Z,158
2022-10-23T01:17:20.770Z,158
2022-10-23T01:18:20.760Z,158
2022-10-23T01:19:20.739Z,158
2022-10-23T01:20:20.752Z,158
2022-10-23T01:21:20.746Z,158
2022-10-23T01:22:20.787Z,158
2022-10-23T01:23:20.781Z,158
2022-10-23T01:24:20.762Z,158
2022-10-23T01:25:20.762Z,158
2022-10-23T01:26:20.753Z,158
2022-10-23T01:27:20.748Z,158
2022-10-23T01:28:20.749Z,158
2022-10-23T01:29:20.766Z,158
2022-10-23T01:30:20.756Z,158
2022-10-23T01:31:20.762Z,158
2022-10-23T01:32:20.746Z,158
2022-10-23T01:33:20.748Z,158
2022-10-23T01:34:20.756Z,158
2022-10-23T01:35:20.763Z,158
2022-10-23T01:36:20.759Z,158
2022-10-23T01:37:20.760Z,158
2022-10-23T01:38:20.747Z,158
2022-10-23T01:39:20.815Z,158
2022-10-23T01:40:20.799Z,158
2022-10-23T01:41:20.768Z,158
2022-10-23T01:42:20.748Z,158
2022-10-23T01:43:20.756Z,158
2022-10-23T01:44:20.743Z,158
2022-10-23T01:45:20.775Z,158
2022-10-23T01:46:20.745Z,158
2022-10-23T01:48:20.757Z,158
2022-10-23T01:49:20.753Z,158
2022-10-23T01:50:20.774Z,158
2022-10-23T01:51:20.760Z,158
2022-10-23T01:52:20.755Z,158
2022-10-23T01:53:20.753Z,158
2022-10-23T01:54:20.756Z,158
2022-10-23T01:55:20.784Z,158
2022-10-23T01:56:20.754Z,158
2022-10-23T01:57:20.776Z,158
2022-10-23T01:58:20.757Z,158
2022-10-23T01:59:20.755Z,158
2022-10-23T02:00:20.765Z,158
2022-10-23T02:01:20.902Z,158
2022-10-23T02:02:20.867Z,158
2022-10-23T02:03:20.755Z,158
2022-10-23T02:04:20.763Z,158
2022-10-23T02:05:20.768Z,158
2022-10-23T02:06:20.766Z,158
2022-10-23T02:07:20.753Z,158
2022-10-23T02:08:20.753Z,158
2022-10-23T02:09:20.762Z,158
2022-10-23T02:10:20.781Z,158
2022-10-23T02:11:20.794Z,158
2022-10-23T02:12:20.802Z,158
2022-10-23T02:13:20.774Z,158
2022-10-23T02:14:20.761Z,158
2022-10-23T02:15:20.771Z,158
2022-10-23T02:16:20.769Z,158
2022-10-23T02:17:20.761Z,158
2022-10-23T02:18:20.765Z,158
2022-10-23T02:19:20.770Z,158
2022-10-23T02:20:20.774Z,158
2022-10-23T02:21:20.787Z,158
2022-10-23T02:22:20.769Z,158
2022-10-23T02:23:20.783Z,158
2022-10-23T02:24:20.755Z,158
2022-10-23T02:25:20.789Z,158
2022-10-23T02:26:20.766Z,158
2022-10-23T02:27:20.787Z,158
2022-10-23T02:28:20.771Z,158
2022-10-23T02:29:20.768Z,158
2022-10-23T02:30:20.788Z,158
2022-10-23T02:31:20.773Z,158
2022-10-23T02:32:20.761Z,158
2022-10-23T02:33:20.769Z,158
2022-10-23T02:34:20.762Z,158
2022-10-23T02:35:20.780Z,158
2022-10-23T02:36:20.794Z,158
2022-10-23T02:38:20.772Z,158
2022-10-23T02:39:21.061Z,158
2022-10-23T02:40:20.803Z,158
2022-10-23T02:41:20.787Z,158
2022-10-23T02:42:20.765Z,158
2022-10-23T02:43:20.789Z,158
2022-10-23T02:44:20.785Z,158
2022-10-23T02:45:20.841Z,158
2022-10-23T02:46:20.786Z,158
2022-10-23T02:47:20.790Z,158
2022-10-23T02:48:20.778Z,158
2022-10-23T02:49:20.773Z,158
2022-10-23T02:50:20.786Z,158
2022-10-23T02:51:20.778Z,158
2022-10-23T02:52:20.777Z,158
2022-10-23T02:53:20.780Z,158
2022-10-23T02:54:20.788Z,158
2022-10-23T02:55:20.792Z,158
2022-10-23T02:56:20.814Z,158
2022-10-23T02:57:20.782Z,158
2022-10-23T02:58:20.772Z,158
2022-10-23T02:59:20.801Z,158
2022-10-23T03:00:20.793Z,158
2022-10-23T03:01:20.874Z,158
2022-10-23T03:02:20.845Z,158
2022-10-23T03:03:20.783Z,158
2022-10-23T03:04:20.789Z,158
2022-10-23T03:05:20.804Z,158
2022-10-23T03:06:20.780Z,158
2022-10-23T03:07:20.794Z,158
2022-10-23T03:08:20.783Z,158
2022-10-23T03:09:20.791Z,158
2022-10-23T03:10:20.800Z,158
2022-10-23T03:11:20.785Z,158
2022-10-23T03:12:20.790Z,158
2022-10-23T03:13:20.787Z,158
2022-10-23T03:14:20.784Z,158
2022-10-23T03:15:20.825Z,158
2022-10-23T03:16:20.785Z,158
2022-10-23T03:17:20.806Z,158
2022-10-23T03:18:20.796Z,158
2022-10-23T03:19:20.784Z,158
2022-10-23T03:20:20.800Z,158
2022-10-23T03:21:20.778Z,158
2022-10-23T03:22:20.786Z,158
2022-10-23T03:23:20.795Z,158
2022-10-23T03:24:20.782Z,158
2022-10-23T03:25:20.821Z,158
2022-10-23T03:26:20.800Z,158
2022-10-23T03:27:20.835Z,158
2022-10-23T03:28:20.786Z,158
2022-10-23T03:29:20.795Z,135
2022-10-23T03:30:20.807Z,90
2022-10-23T03:31:20.831Z,90
2022-10-23T03:32:20.800Z,45
2022-10-23T03:33:20.806Z,45
2022-10-23T03:34:20.787Z,68
2022-10-23T03:35:20.810Z,68
2022-10-23T03:36:20.817Z,68
2022-10-23T03:37:20.798Z,68
2022-10-23T03:38:20.843Z,68
2022-10-23T03:39:20.795Z,68
2022-10-23T03:40:20.810Z,68
2022-10-23T03:41:20.812Z,68
2022-10-23T03:42:20.814Z,68
2022-10-23T03:43:20.807Z,68
2022-10-23T03:44:20.830Z,68
2022-10-23T03:45:20.812Z,68
2022-10-23T03:46:20.796Z,68
2022-10-23T03:47:20.838Z,68
2022-10-23T03:48:20.833Z,68
2022-10-23T03:49:20.810Z,68
2022-10-23T03:50:20.819Z,68
2022-10-23T03:51:20.806Z,68
2022-10-23T03:52:20.841Z,68
2022-10-23T03:53:20.807Z,68
2022-10-23T03:54:20.821Z,68
2022-10-23T03:55:20.810Z,68
2022-10-23T03:56:20.802Z,68
2022-10-23T03:57:20.810Z,68
2022-10-23T03:58:20.804Z,68
2022-10-23T03:59:20.814Z,68
2022-10-23T04:00:20.824Z,68
2022-10-23T04:01:20.890Z,68
2022-10-23T04:02:20.935Z,68
2022-10-23T04:03:20.854Z,68
2022-10-23T04:04:20.814Z,68
2022-10-23T04:05:20.831Z,68
2022-10-23T04:06:20.829Z,68
2022-10-23T04:07:20.808Z,68
2022-10-23T04:08:20.810Z,68
2022-10-23T04:09:20.835Z,68
2022-10-23T04:10:20.839Z,68
2022-10-23T04:11:20.825Z,68
2022-10-23T04:12:20.811Z,68
2022-10-23T04:13:20.813Z,68
2022-10-23T04:14:20.849Z,68
2022-10-23T04:15:20.828Z,68
2022-10-23T04:16:20.815Z,68
2022-10-23T04:17:20.887Z,68
2022-10-23T04:18:20.857Z,68
2022-10-23T04:19:20.883Z,68
2022-10-23T04:20:20.845Z,68
2022-10-23T04:21:20.820Z,68
2022-10-23T04:22:23.486Z,68
2022-10-23T04:23:20.834Z,68
2022-10-23T04:24:20.838Z,68
2022-10-23T04:25:20.836Z,68
2022-10-23T04:26:20.859Z,68
2022-10-23T04:27:20.839Z,68
2022-10-23T04:28:20.841Z,68
2022-10-23T04:29:20.830Z,68
2022-10-23T04:30:20.845Z,68
2022-10-23T04:31:20.843Z,68
2022-10-23T04:32:20.823Z,68
2022-10-23T04:33:20.860Z,68
2022-10-23T04:34:20.858Z,68
2022-10-23T04:35:20.884Z,68
2022-10-23T04:36:20.848Z,68
2022-10-23T04:37:20.830Z,68
2022-10-23T04:38:20.841Z,68
2022-10-23T04:39:20.843Z,68
2022-10-23T04:40:20.838Z,68
2022-10-23T04:41:20.840Z,68
2022-10-23T04:42:20.929Z,68
2022-10-23T04:43:20.852Z,68
2022-10-23T04:44:20.854Z,68
2022-10-23T04:45:20.855Z,68
2022-10-23T04:46:20.852Z,68
2022-10-23T04:47:20.857Z,68
2022-10-23T04:48:22.445Z,68
2022-10-23T04:49:20.838Z,68
2022-10-23T04:50:20.864Z,68
2022-10-23T04:51:20.864Z,68
2022-10-23T04:52:20.855Z,68
2022-10-23T04:53:20.868Z,68
2022-10-23T04:54:20.859Z,68
2022-10-23T04:55:20.872Z,68
2022-10-23T04:56:20.854Z,68
2022-10-23T04:57:20.868Z,68
2022-10-23T04:58:20.862Z,68
2022-10-23T04:59:21.064Z,68
2022-10-23T05:00:20.869Z,68
2022-10-23T05:01:20.915Z,68
2022-10-23T05:02:20.873Z,68
2022-10-23T05:03:20.844Z,68
2022-10-23T05:04:20.879Z,68
2022-10-23T05:05:20.869Z,68
2022-10-23T05:06:20.868Z,68
2022-10-23T05:08:20.848Z,68
2022-10-23T05:09:20.868Z,68
2022-10-23T05:10:20.872Z,68
2022-10-23T05:11:20.868Z,68
2022-10-23T05:12:20.873Z,68
2022-10-23T05:13:20.868Z,68
2022-10-23T05:14:22.102Z,68
2022-10-23T05:15:20.870Z,68
2022-10-23T05:16:20.858Z,68
2022-10-23T05:17:20.860Z,68
2022-10-23T05:18:20.850Z,68
2022-10-23T05:19:22.061Z,68
2022-10-23T05:20:20.875Z,68
2022-10-23T05:21:20.869Z,68
2022-10-23T05:22:20.863Z,68
2022-10-23T05:23:20.882Z,68
2022-10-23T05:24:20.859Z,68
2022-10-23T05:25:20.876Z,68
2022-10-23T05:26:20.859Z,68
2022-10-23T05:27:20.860Z,68
2022-10-23T05:28:20.855Z,68
2022-10-23T05:29:20.881Z,68
2022-10-23T05:30:20.887Z,68
2022-10-23T05:31:20.869Z,68
2022-10-23T05:33:20.866Z,68
2022-10-23T05:34:20.869Z,68
2022-10-23T05:35:20.880Z,68
2022-10-23T05:36:20.874Z,68
2022-10-23T05:37:20.872Z,68
2022-10-23T05:38:20.875Z,68
2022-10-23T05:39:20.904Z,68
2022-10-23T05:40:20.874Z,68
2022-10-23T05:41:20.869Z,68
2022-10-23T05:42:20.868Z,68
2022-10-23T05:43:20.869Z,68
2022-10-23T05:44:20.870Z,68
2022-10-23T05:45:20.881Z,68
2022-10-23T05:46:20.883Z,68
2022-10-23T05:47:20.886Z,68
2022-10-23T05:48:34.111Z,68
2022-10-23T05:49:20.893Z,68
2022-10-23T05:50:20.903Z,68
2022-10-23T05:51:20.898Z,68
2022-10-23T05:52:20.904Z,68
2022-10-23T05:53:20.877Z,68
2022-10-23T05:54:20.879Z,68
2022-10-23T05:55:20.917Z,68
2022-10-23T05:56:20.881Z,68
2022-10-23T05:57:20.895Z,68
2022-10-23T05:58:20.894Z,68
2022-10-23T05:59:22.149Z,68
2022-10-23T06:00:20.893Z,68
2022-10-23T06:01:20.959Z,68
2022-10-23T06:02:20.970Z,68
2022-10-23T06:03:20.886Z,68
2022-10-23T06:04:20.905Z,68
2022-10-23T06:05:20.890Z,68
2022-10-23T06:06:20.879Z,68
2022-10-23T06:07:20.896Z,68
2022-10-23T06:08:20.901Z,68
2022-10-23T06:09:20.900Z,45
2022-10-23T06:10:20.905Z,45
2022-10-23T06:11:20.920Z,45
2022-10-23T06:12:20.891Z,45
2022-10-23T06:13:20.898Z,45
2022-10-23T06:14:20.900Z,45
2022-10-23T06:15:20.900Z,45
2022-10-23T06:16:20.895Z,45
2022-10-23T06:17:20.903Z,45
2022-10-23T06:18:20.892Z,45
2022-10-23T06:19:20.881Z,0
2022-10-23T06:20:23.105Z,0
2022-10-23T06:21:20.898Z,0
2022-10-23T06:22:20.964Z,0
2022-10-23T06:23:20.911Z,0
2022-10-23T06:24:20.904Z,0
2022-10-23T06:25:20.909Z,0
2022-10-23T06:26:20.903Z,0
2022-10-23T06:27:20.924Z,0
2022-10-23T06:28:20.930Z,0
2022-10-23T06:29:20.905Z,0
2022-10-23T06:30:20.910Z,0
2022-10-23T06:31:20.909Z,0
2022-10-23T06:32:20.900Z,0
2022-10-23T06:33:20.887Z,0
2022-10-23T06:34:20.904Z,0
2022-10-23T06:35:20.913Z,0
2022-10-23T06:36:20.899Z,0
2022-10-23T06:37:20.888Z,0
2022-10-23T06:38:20.892Z,0
2022-10-23T06:39:20.928Z,0
2022-10-23T06:40:20.912Z,0
2022-10-23T06:41:20.952Z,0
2022-10-23T06:42:20.943Z,0
2022-10-23T06:43:20.929Z,0
2022-10-23T06:44:20.927Z,0
2022-10-23T06:45:20.912Z,0
2022-10-23T06:46:20.904Z,0
2022-10-23T06:47:20.929Z,0
2022-10-23T06:48:20.919Z,0
2022-10-23T06:49:20.896Z,0
2022-10-23T06:50:20.912Z,0
2022-10-23T06:51:20.907Z,0
2022-10-23T06:52:41.988Z,0
2022-10-23T06:53:20.933Z,0
2022-10-23T06:54:20.938Z,0
2022-10-23T06:55:20.945Z,0
2022-10-23T06:56:20.917Z,0
2022-10-23T06:57:20.899Z,0
2022-10-23T06:58:20.922Z,0
2022-10-23T06:59:20.953Z,0
2022-10-23T07:00:20.908Z,0
2022-10-23T07:01:21.009Z,0
2022-10-23T07:02:20.923Z,0
2022-10-23T07:03:20.935Z,0
2022-10-23T07:04:20.934Z,0
2022-10-23T07:05:20.941Z,0
2022-10-23T07:06:20.908Z,0
2022-10-23T07:07:20.941Z,0
2022-10-23T07:08:20.926Z,0
2022-10-23T07:09:20.926Z,0
2022-10-23T07:10:20.921Z,0
2022-10-23T07:11:20.916Z,0
2022-10-23T07:12:20.916Z,0
2022-10-23T07:13:20.932Z,315
2022-10-23T07:14:20.927Z,315
2022-10-23T07:15:20.983Z,315
2022-10-23T07:16:20.910Z,315
2022-10-23T07:17:20.921Z,315
2022-10-23T07:18:20.906Z,315
2022-10-23T07:19:20.908Z,315
2022-10-23T07:20:20.915Z,315
2022-10-23T07:21:20.923Z,315
2022-10-23T07:22:20.913Z,315
2022-10-23T07:23:20.916Z,315
2022-10-23T07:24:20.904Z,315
2022-10-23T07:25:20.923Z,315
2022-10-23T07:26:20.918Z,315
2022-10-23T07:27:20.912Z,315
2022-10-23T07:28:20.919Z,315
2022-10-23T07:29:20.931Z,315
2022-10-23T07:30:20.928Z,315
2022-10-23T07:31:23.094Z,315
2022-10-23T07:32:20.935Z,315
2022-10-23T07:33:20.928Z,315
2022-10-23T07:34:20.934Z,0
2022-10-23T07:35:20.938Z,0
2022-10-23T07:36:20.928Z,0
2022-10-23T07:37:20.948Z,0
2022-10-23T07:38:20.925Z,0
2022-10-23T07:39:20.932Z,0
2022-10-23T07:40:20.939Z,0
2022-10-23T07:41:20.920Z,0
2022-10-23T07:42:20.933Z,0
2022-10-23T07:43:21.117Z,0
2022-10-23T07:44:21.975Z,0
2022-10-23T07:45:20.945Z,0
2022-10-23T07:46:20.935Z,0
2022-10-23T07:47:20.964Z,0
2022-10-23T07:48:20.937Z,0
2022-10-23T07:49:20.934Z,0
2022-10-23T07:50:20.942Z,0
2022-10-23T07:51:20.950Z,0
2022-10-23T07:52:20.943Z,0
2022-10-23T07:53:20.927Z,0
2022-10-23T07:54:20.930Z,338
2022-10-23T07:55:20.953Z,315
2022-10-23T07:56:20.926Z,315
2022-10-23T07:57:20.936Z,0
2022-10-23T07:58:20.935Z,338
2022-10-23T07:59:20.934Z,338
2022-10-23T08:00:20.961Z,338
2022-10-23T08:01:20.971Z,338
2022-10-23T08:02:20.980Z,0
2022-10-23T08:03:20.962Z,315
2022-10-23T08:04:20.937Z,22
2022-10-23T08:05:20.949Z,22
2022-10-23T08:06:20.930Z,22
2022-10-23T08:07:20.926Z,338
2022-10-23T08:08:20.958Z,0
2022-10-23T08:09:20.971Z,292
2022-10-23T08:10:20.966Z,338
2022-10-23T08:11:20.970Z,292
2022-10-23T08:12:20.961Z,0
2022-10-23T08:13:20.963Z,0
2022-10-23T08:14:20.972Z,315
2022-10-23T08:15:20.967Z,338
2022-10-23T08:16:20.991Z,315
2022-10-23T08:17:22.211Z,0
2022-10-23T08:18:20.966Z,68
2022-10-23T08:19:21.002Z,0
2022-10-23T08:20:20.970Z,338
2022-10-23T08:21:20.997Z,45
2022-10-23T08:22:20.966Z,338
2022-10-23T08:23:20.975Z,292
2022-10-23T08:24:20.990Z,338
2022-10-23T08:25:24.732Z,338
2022-10-23T08:26:20.960Z,0
2022-10-23T08:27:20.987Z,22
2022-10-23T08:28:20.964Z,22
2022-10-23T08:29:20.969Z,22
2022-10-23T08:30:20.973Z,68
2022-10-23T08:31:20.978Z,68
2022-10-23T08:32:20.963Z,68
2022-10-23T08:33:20.982Z,22
2022-10-23T08:34:20.985Z,22
2022-10-23T08:35:21.007Z,22
2022-10-23T08:36:20.995Z,22
2022-10-23T08:37:20.969Z,22
2022-10-23T08:38:20.970Z,22
2022-10-23T08:39:20.972Z,0
2022-10-23T08:40:20.989Z,22
2022-10-23T08:41:20.980Z,68
2022-10-23T08:42:20.987Z,68
2022-10-23T08:43:20.987Z,22
2022-10-23T08:44:20.963Z,338
2022-10-23T08:45:20.987Z,22
2022-10-23T08:46:20.973Z,22
2022-10-23T08:47:20.996Z,22
2022-10-23T08:48:20.983Z,45
2022-10-23T08:49:20.995Z,68
2022-10-23T08:50:21.080Z,22
2022-10-23T08:51:21.012Z,292
2022-10-23T08:52:20.991Z,338
2022-10-23T08:53:20.964Z,45
2022-10-23T08:54:20.969Z,22
2022-10-23T08:55:20.983Z,22
2022-10-23T08:56:20.997Z,0
2022-10-23T08:57:20.984Z,315
2022-10-23T08:58:20.975Z,45
2022-10-23T08:59:20.996Z,22
2022-10-23T09:00:21.011Z,68
2022-10-23T09:01:21.130Z,68
2022-10-23T09:02:21.078Z,68
2022-10-23T09:03:21.119Z,22
2022-10-23T09:04:20.976Z,22
2022-10-23T09:05:20.999Z,22
2022-10-23T09:06:20.982Z,22
2022-10-23T09:07:21.014Z,22
2022-10-23T09:08:20.980Z,338
2022-10-23T09:09:20.987Z,338
2022-10-23T09:10:21.020Z,0
2022-10-23T09:11:21.001Z,338
2022-10-23T09:12:20.995Z,22
2022-10-23T09:13:20.971Z,22
2022-10-23T09:14:20.980Z,315
2022-10-23T09:15:21.000Z,0
2022-10-23T09:16:20.988Z,315
2022-10-23T09:17:20.983Z,338
2022-10-23T09:18:20.986Z,45
2022-10-23T09:19:20.987Z,22
2022-10-23T09:20:21.005Z,315
2022-10-23T09:21:21.006Z,338
2022-10-23T09:22:21.003Z,0
2022-10-23T09:23:21.022Z,315
2022-10-23T09:24:20.991Z,338
2022-10-23T09:25:21.029Z,45
2022-10-23T09:26:20.998Z,315
2022-10-23T09:27:21.027Z,45
2022-10-23T09:28:21.001Z,292
2022-10-23T09:29:20.982Z,315
2022-10-23T09:30:21.008Z,338
2022-10-23T09:31:21.058Z,338
2022-10-23T09:32:20.998Z,338
2022-10-23T09:33:21.032Z,22
2022-10-23T09:34:21.017Z,315
2022-10-23T09:35:21.008Z,0
2022-10-23T09:36:21.001Z,315
2022-10-23T09:37:21.256Z,22
2022-10-23T09:38:21.012Z,315
2022-10-23T09:39:21.027Z,315
2022-10-23T09:40:21.001Z,315
2022-10-23T09:41:21.011Z,0
2022-10-23T09:42:20.994Z,315
2022-10-23T09:43:20.996Z,22
2022-10-23T09:44:21.017Z,338
2022-10-23T09:45:21.030Z,338
2022-10-23T09:46:21.030Z,22
2022-10-23T09:47:21.038Z,315
2022-10-23T09:48:21.003Z,315
2022-10-23T09:49:21.014Z,338
2022-10-23T09:50:21.033Z,338
2022-10-23T09:51:21.026Z,338
2022-10-23T09:52:21.031Z,338
2022-10-23T09:53:20.991Z,0
2022-10-23T09:54:20.994Z,45
2022-10-23T09:55:21.058Z,68
2022-10-23T09:56:24.300Z,338
2022-10-23T09:57:20.999Z,338
2022-10-23T09:58:21.019Z,315
2022-10-23T09:59:20.998Z,315
2022-10-23T10:00:21.029Z,315
2022-10-23T10:01:21.180Z,315
2022-10-23T10:02:21.103Z,315
2022-10-23T10:03:21.028Z,338
2022-10-23T10:04:21.031Z,338
2022-10-23T10:05:21.032Z,338
2022-10-23T10:06:21.008Z,292
2022-10-23T10:07:21.011Z,292
2022-10-23T10:08:21.021Z,292
2022-10-23T10:09:21.051Z,292
2022-10-23T10:10:21.043Z,292
2022-10-23T10:11:21.047Z,292
2022-10-23T10:12:21.014Z,292
2022-10-23T10:13:21.029Z,292
2022-10-23T10:14:21.010Z,292
2022-10-23T10:15:21.044Z,315
2022-10-23T10:16:21.037Z,292
2022-10-23T10:17:21.028Z,292
2022-10-23T10:18:21.032Z,292
2022-10-23T10:19:21.056Z,292
2022-10-23T10:20:21.057Z,292
2022-10-23T10:21:21.035Z,292
2022-10-23T10:22:21.034Z,292
2022-10-23T10:23:21.040Z,292
2022-10-23T10:24:21.045Z,315
2022-10-23T10:25:21.048Z,292
2022-10-23T10:26:21.098Z,292
2022-10-23T10:27:21.088Z,338
2022-10-23T10:28:21.062Z,292
2022-10-23T10:29:21.044Z,292
2022-10-23T10:30:21.048Z,315
2022-10-23T10:31:21.042Z,292
2022-10-23T10:32:21.046Z,292
2022-10-23T10:33:21.087Z,315
2022-10-23T10:34:21.057Z,292
2022-10-23T10:35:21.065Z,292
2022-10-23T10:36:21.103Z,292
2022-10-23T10:37:21.077Z,315
2022-10-23T10:38:21.050Z,315
2022-10-23T10:39:21.056Z,338
2022-10-23T10:40:21.072Z,338
2022-10-23T10:41:21.119Z,0
2022-10-23T10:42:21.060Z,0
2022-10-23T10:43:21.090Z,68
2022-10-23T10:44:21.058Z,45
2022-10-23T10:45:21.071Z,22
2022-10-23T10:46:21.068Z,22
2022-10-23T10:47:21.303Z,45
2022-10-23T10:48:21.095Z,45
2022-10-23T10:49:21.067Z,315
2022-10-23T10:50:21.053Z,338
2022-10-23T10:51:21.051Z,315
2022-10-23T10:52:21.067Z,292
2022-10-23T10:53:21.047Z,292
2022-10-23T10:54:21.069Z,338
2022-10-23T10:55:21.073Z,338
2022-10-23T10:56:21.049Z,22
2022-10-23T10:57:21.051Z,22
2022-10-23T10:58:21.053Z,22
2022-10-23T10:59:21.097Z,0
2022-10-23T11:00:21.081Z,22
2022-10-23T11:01:21.168Z,22
2022-10-23T11:02:21.127Z,45
2022-10-23T11:03:21.053Z,68
2022-10-23T11:04:21.069Z,22
2022-10-23T11:05:21.082Z,68
2022-10-23T11:06:21.085Z,68
2022-10-23T11:07:21.089Z,68
2022-10-23T11:08:21.104Z,22
2022-10-23T11:09:21.216Z,315
2022-10-23T11:10:21.085Z,0
2022-10-23T11:11:21.062Z,68
2022-10-23T11:12:21.063Z,315
2022-10-23T11:13:21.061Z,338
2022-10-23T11:14:21.078Z,315
2022-10-23T11:15:21.103Z,315
2022-10-23T11:16:21.066Z,315
2022-10-23T11:17:21.065Z,315
2022-10-23T11:18:21.093Z,315
2022-10-23T11:19:21.066Z,338
2022-10-23T11:20:21.083Z,338
2022-10-23T11:21:21.069Z,315
2022-10-23T11:22:21.098Z,292
2022-10-23T11:23:21.093Z,315
2022-10-23T11:24:21.084Z,315
2022-10-23T11:25:21.068Z,338
2022-10-23T11:26:21.068Z,315
2022-10-23T11:27:21.067Z,292
2022-10-23T11:28:21.071Z,315
2022-10-23T11:29:21.105Z,22
2022-10-23T11:30:21.075Z,22
2022-10-23T11:31:21.097Z,315
2022-10-23T11:32:21.107Z,292
2022-10-23T11:33:21.069Z,292
2022-10-23T11:34:21.068Z,22
2022-10-23T11:35:21.098Z,22
2022-10-23T11:36:21.082Z,45
2022-10-23T11:37:21.104Z,315
2022-10-23T11:38:21.083Z,292
2022-10-23T11:39:21.129Z,292
2022-10-23T11:40:21.166Z,270
2022-10-23T11:41:22.357Z,292
2022-10-23T11:42:21.100Z,292
2022-10-23T11:43:21.103Z,292
2022-10-23T11:44:21.129Z,292
2022-10-23T11:45:21.086Z,292
2022-10-23T11:46:21.091Z,292
2022-10-23T11:47:21.137Z,292
2022-10-23T11:48:21.094Z,292
2022-10-23T11:49:21.112Z,68
2022-10-23T11:50:21.091Z,68
2022-10-23T11:51:21.096Z,68
2022-10-23T11:52:21.119Z,68
2022-10-23T11:53:21.410Z,68
2022-10-23T11:54:21.110Z,45
2022-10-23T11:55:21.096Z,338
2022-10-23T11:56:21.109Z,45
2022-10-23T11:57:21.149Z,0
2022-10-23T11:58:21.103Z,315
2022-10-23T11:59:21.121Z,315
2022-10-23T12:00:21.100Z,315
2022-10-23T12:01:21.147Z,292
2022-10-23T12:02:21.155Z,315
2022-10-23T12:03:21.126Z,292
2022-10-23T12:04:21.139Z,315
2022-10-23T12:05:21.114Z,315
2022-10-23T12:06:21.124Z,315
2022-10-23T12:07:21.099Z,338
2022-10-23T12:08:21.106Z,292
2022-10-23T12:09:21.120Z,292
2022-10-23T12:10:21.119Z,338
2022-10-23T12:11:24.281Z,315
2022-10-23T12:12:21.118Z,315
2022-10-23T12:13:21.106Z,315
2022-10-23T12:14:21.138Z,315
2022-10-23T12:15:21.106Z,315
2022-10-23T12:16:21.101Z,338
2022-10-23T12:17:21.115Z,338
2022-10-23T12:18:21.119Z,338
2022-10-23T12:19:21.146Z,338
2022-10-23T12:20:21.125Z,338
2022-10-23T12:21:21.149Z,338
2022-10-23T12:22:21.114Z,315
2022-10-23T12:23:21.125Z,292
2022-10-23T12:24:21.138Z,292
2022-10-23T12:25:21.114Z,292
2022-10-23T12:26:21.117Z,292
2022-10-23T12:27:21.113Z,292
2022-10-23T12:28:21.102Z,292
2022-10-23T12:29:21.145Z,292
2022-10-23T12:30:21.116Z,292
2022-10-23T12:31:21.121Z,292
2022-10-23T12:32:21.114Z,292
2022-10-23T12:33:21.127Z,315
2022-10-23T12:34:21.134Z,315
2022-10-23T12:35:21.138Z,0
2022-10-23T12:36:21.109Z,45
2022-10-23T12:37:21.102Z,338
2022-10-23T12:38:21.135Z,338
2022-10-23T12:39:21.154Z,338
2022-10-23T12:40:21.123Z,338
2022-10-23T12:41:21.116Z,315
2022-10-23T12:42:21.123Z,45
2022-10-23T12:43:21.154Z,22
2022-10-23T12:44:21.129Z,0
2022-10-23T12:45:21.112Z,338
2022-10-23T12:46:21.139Z,22
2022-10-23T12:47:21.115Z,315
2022-10-23T12:48:21.124Z,338
2022-10-23T12:49:21.147Z,338
2022-10-23T12:50:21.140Z,22
2022-10-23T12:51:21.144Z,338
2022-10-23T12:52:21.123Z,22
2022-10-23T12:53:21.121Z,45
2022-10-23T12:54:21.173Z,22
2022-10-23T12:55:21.139Z,338
2022-10-23T12:56:21.169Z,338
2022-10-23T12:57:21.170Z,315
2022-10-23T12:58:21.148Z,315
2022-10-23T12:59:21.164Z,338
2022-10-23T13:00:21.135Z,45
2022-10-23T13:01:21.200Z,45
2022-10-23T13:02:21.237Z,45
2022-10-23T13:03:21.167Z,45
2022-10-23T13:04:21.186Z,45
2022-10-23T13:05:21.150Z,45
2022-10-23T13:06:21.163Z,45
2022-10-23T13:07:21.164Z,68
2022-10-23T13:08:21.143Z,68
2022-10-23T13:09:21.159Z,22
2022-10-23T13:10:21.151Z,22
2022-10-23T13:11:21.155Z,22
2022-10-23T13:12:21.146Z,0
2022-10-23T13:13:21.149Z,338
2022-10-23T13:14:21.145Z,338
2022-10-23T13:15:21.163Z,338
2022-10-23T13:16:21.276Z,315
2022-10-23T13:17:21.142Z,315
2022-10-23T13:18:21.157Z,338
2022-10-23T13:19:21.279Z,315
2022-10-23T13:20:21.157Z,292
2022-10-23T13:21:21.170Z,292
2022-10-23T13:22:21.163Z,315
2022-10-23T13:23:21.185Z,292
2022-10-23T13:24:21.177Z,292
2022-10-23T13:25:21.145Z,292
2022-10-23T13:26:21.147Z,292
2022-10-23T13:27:21.160Z,292
2022-10-23T13:28:21.172Z,270
2022-10-23T13:29:21.257Z,292
2022-10-23T13:30:21.174Z,292
2022-10-23T13:31:21.159Z,0
2022-10-23T13:32:21.151Z,338
2022-10-23T13:33:21.155Z,315
2022-10-23T13:34:21.153Z,315
2022-10-23T13:35:22.149Z,315
2022-10-23T13:36:21.173Z,315
2022-10-23T13:37:21.163Z,315
2022-10-23T13:38:21.189Z,315
2022-10-23T13:39:21.219Z,315
2022-10-23T13:40:21.159Z,315
2022-10-23T13:41:21.153Z,315
2022-10-23T13:42:21.199Z,315
2022-10-23T13:43:21.176Z,315
2022-10-23T13:44:21.188Z,315
2022-10-23T13:45:21.156Z,315
2022-10-23T13:46:21.163Z,315
2022-10-23T13:47:21.156Z,315
2022-10-23T13:48:21.163Z,315
2022-10-23T13:49:21.174Z,315
2022-10-23T13:50:21.171Z,315
2022-10-23T13:51:21.158Z,315
2022-10-23T13:52:21.161Z,315
2022-10-23T13:53:21.173Z,315
2022-10-23T13:54:21.193Z,315
2022-10-23T13:55:21.203Z,315
2022-10-23T13:56:21.176Z,315
2022-10-23T13:57:21.165Z,315
2022-10-23T13:58:21.198Z,315
2022-10-23T13:59:21.176Z,315
2022-10-23T14:00:21.159Z,315
2022-10-23T14:01:21.282Z,202
2022-10-23T14:02:21.337Z,202
2022-10-23T14:03:21.183Z,202
2022-10-23T14:04:21.165Z,202
2022-10-23T14:05:21.169Z,202
2022-10-23T14:06:21.188Z,202